createdAt,value
2018-09-27T00:00:12.675Z,1010.62
2018-09-27T00:01:12.657Z,1010.63
2018-09-27T00:02:12.635Z,1010.65
2018-09-27T00:03:12.606Z,1010.66
2018-09-27T00:04:12.587Z,1010.65
2018-09-27T00:05:12.562Z,1010.64
2018-09-27T00:06:12.543Z,1010.63
2018-09-27T00:07:12.521Z,1010.65
2018-09-27T00:08:12.498Z,1010.64
2018-09-27T00:09:12.479Z,1010.67
2018-09-27T00:10:12.451Z,1010.65
2018-09-27T00:11:12.434Z,1010.68
2018-09-27T00:12:12.409Z,1010.67
2018-09-27T00:13:12.384Z,1010.66
2018-09-27T00:14:12.364Z,1010.62
2018-09-27T00:15:12.343Z,1010.59
2018-09-27T00:16:12.318Z,1010.56
2018-09-27T00:17:12.292Z,1010.56
2018-09-27T00:18:12.277Z,1010.58
2018-09-27T00:19:12.248Z,1010.57
2018-09-27T00:20:12.229Z,1010.53
2018-09-27T00:21:12.205Z,1010.51
2018-09-27T00:22:12.184Z,1010.48
2018-09-27T00:23:12.155Z,1010.48
2018-09-27T00:24:12.134Z,1010.45
2018-09-27T00:25:12.118Z,1010.44
2018-09-27T00:26:12.096Z,1010.47
2018-09-27T00:27:12.077Z,1010.45
2018-09-27T00:28:12.044Z,1010.50
2018-09-27T00:29:12.026Z,1010.52
2018-09-27T00:30:11.999Z,1010.54
2018-09-27T00:31:11.984Z,1010.55
2018-09-27T00:32:11.958Z,1010.49
2018-09-27T00:33:11.935Z,1010.49
2018-09-27T00:34:11.914Z,1010.43
2018-09-27T00:35:11.887Z,1010.45
2018-09-27T00:36:11.865Z,1010.41
2018-09-27T00:37:11.842Z,1010.42
2018-09-27T00:38:11.820Z,1010.44
2018-09-27T00:39:11.804Z,1010.37
2018-09-27T00:40:11.775Z,1010.41
2018-09-27T00:41:11.753Z,1010.37
2018-09-27T00:42:11.729Z,1010.42
2018-09-27T00:43:11.704Z,1010.40
2018-09-27T00:44:11.693Z,1010.39
2018-09-27T00:45:11.663Z,1010.41
2018-09-27T00:46:11.652Z,1010.40
2018-09-27T00:47:11.670Z,1010.39
2018-09-27T00:48:11.595Z,1010.40
2018-09-27T00:49:11.569Z,1010.36
2018-09-27T00:50:11.550Z,1010.35
2018-09-27T00:51:11.534Z,1010.33
2018-09-27T00:52:11.501Z,1010.30
2018-09-27T00:53:11.482Z,1010.30
2018-09-27T00:54:11.467Z,1010.32
2018-09-27T00:55:12.292Z,1010.30
2018-09-27T00:56:11.419Z,1010.27
2018-09-27T00:57:11.390Z,1010.28
2018-09-27T00:58:11.367Z,1010.26
2018-09-27T00:59:11.344Z,1010.24
2018-09-27T01:00:11.325Z,1010.23
2018-09-27T01:01:11.306Z,1010.20
2018-09-27T01:02:11.286Z,1010.17
2018-09-27T01:03:11.255Z,1010.18
2018-09-27T01:04:11.232Z,1010.17
2018-09-27T01:05:11.213Z,1010.17
2018-09-27T01:06:11.188Z,1010.11
2018-09-27T01:07:11.168Z,1010.14
2018-09-27T01:08:11.141Z,1010.13
2018-09-27T01:09:11.119Z,1010.08
2018-09-27T01:10:11.106Z,1010.05
2018-09-27T01:11:11.074Z,1009.99
2018-09-27T01:12:11.058Z,1009.99
2018-09-27T01:13:11.036Z,1010.00
2018-09-27T01:14:11.006Z,1009.98
2018-09-27T01:15:10.985Z,1009.97
2018-09-27T01:16:10.959Z,1009.99
2018-09-27T01:17:10.937Z,1010.00
2018-09-27T01:18:10.915Z,1009.99
2018-09-27T01:19:10.902Z,1009.97
2018-09-27T01:20:10.870Z,1009.96
2018-09-27T01:21:10.848Z,1009.99
2018-09-27T01:22:10.832Z,1009.99
2018-09-27T01:23:10.809Z,1010.00
2018-09-27T01:24:10.786Z,1009.99
2018-09-27T01:25:10.758Z,1010.00
2018-09-27T01:26:10.745Z,1010.01
2018-09-27T01:27:10.717Z,1010.01
2018-09-27T01:28:10.691Z,1010.02
2018-09-27T01:29:10.665Z,1010.02
2018-09-27T01:30:10.645Z,1009.98
2018-09-27T01:31:10.623Z,1009.98
2018-09-27T01:32:10.598Z,1009.93
2018-09-27T01:33:10.577Z,1009.91
2018-09-27T01:34:10.570Z,1009.92
2018-09-27T01:35:10.535Z,1009.88
2018-09-27T01:36:10.508Z,1009.91
2018-09-27T01:37:10.489Z,1009.85
2018-09-27T01:38:10.464Z,1009.87
2018-09-27T01:39:10.445Z,1009.86
2018-09-27T01:40:10.416Z,1009.89
2018-09-27T01:41:10.411Z,1009.86
2018-09-27T01:42:10.380Z,1009.86
2018-09-27T01:43:10.355Z,1009.86
2018-09-27T01:44:10.325Z,1009.86
2018-09-27T01:45:10.807Z,1009.82
2018-09-27T01:46:10.295Z,1009.84
2018-09-27T01:47:10.282Z,1009.80
2018-09-27T01:48:10.251Z,1009.78
2018-09-27T01:49:10.223Z,1009.76
2018-09-27T01:50:10.217Z,1009.75
2018-09-27T01:51:10.172Z,1009.76
2018-09-27T01:52:10.143Z,1009.71
2018-09-27T01:53:10.137Z,1009.70
2018-09-27T01:54:10.108Z,1009.69
2018-09-27T01:55:10.077Z,1009.67
2018-09-27T01:56:10.067Z,1009.70
2018-09-27T01:57:10.031Z,1009.64
2018-09-27T01:58:10.013Z,1009.63
2018-09-27T01:59:09.993Z,1009.65
2018-09-27T02:00:09.974Z,1009.67
2018-09-27T02:01:09.948Z,1009.63
2018-09-27T02:02:09.923Z,1009.64
2018-09-27T02:03:09.899Z,1009.64
2018-09-27T02:04:09.873Z,1009.68
2018-09-27T02:05:09.851Z,1009.69
2018-09-27T02:06:09.832Z,1009.75
2018-09-27T02:07:09.804Z,1009.73
2018-09-27T02:08:09.778Z,1009.71
2018-09-27T02:09:09.778Z,1009.72
2018-09-27T02:10:09.735Z,1009.71
2018-09-27T02:11:09.715Z,1009.65
2018-09-27T02:12:09.699Z,1009.63
2018-09-27T02:13:09.667Z,1009.66
2018-09-27T02:14:09.644Z,1009.64
2018-09-27T02:15:09.625Z,1009.63
2018-09-27T02:16:09.603Z,1009.57
2018-09-27T02:17:09.577Z,1009.60
2018-09-27T02:18:09.555Z,1009.67
2018-09-27T02:19:09.539Z,1009.66
2018-09-27T02:20:09.510Z,1009.66
2018-09-27T02:21:09.487Z,1009.67
2018-09-27T02:22:09.464Z,1009.67
2018-09-27T02:23:09.439Z,1009.66
2018-09-27T02:24:09.424Z,1009.67
2018-09-27T02:25:09.394Z,1009.63
2018-09-27T02:26:09.372Z,1009.65
2018-09-27T02:27:09.353Z,1009.59
2018-09-27T02:28:09.333Z,1009.61
2018-09-27T02:29:09.304Z,1009.55
2018-09-27T02:30:09.288Z,1009.52
2018-09-27T02:31:09.263Z,1009.55
2018-09-27T02:32:09.240Z,1009.52
2018-09-27T02:33:09.215Z,1009.50
2018-09-27T02:34:09.192Z,1009.54
2018-09-27T02:35:09.174Z,1009.51
2018-09-27T02:36:09.148Z,1009.48
2018-09-27T02:37:09.129Z,1009.49
2018-09-27T02:38:09.101Z,1009.47
2018-09-27T02:39:09.079Z,1009.47
2018-09-27T02:40:09.058Z,1009.44
2018-09-27T02:41:09.038Z,1009.47
2018-09-27T02:42:09.010Z,1009.39
2018-09-27T02:43:08.984Z,1009.38
2018-09-27T02:44:08.968Z,1009.38
2018-09-27T02:45:08.939Z,1009.39
2018-09-27T02:46:08.916Z,1009.38
2018-09-27T02:47:08.900Z,1009.35
2018-09-27T02:48:08.882Z,1009.35
2018-09-27T02:49:08.859Z,1009.37
2018-09-27T02:50:08.834Z,1009.34
2018-09-27T02:51:08.810Z,1009.30
2018-09-27T02:52:08.786Z,1009.28
2018-09-27T02:53:08.756Z,1009.29
2018-09-27T02:54:08.739Z,1009.32
2018-09-27T02:55:08.713Z,1009.33
2018-09-27T02:56:08.688Z,1009.31
2018-09-27T02:57:08.668Z,1009.31
2018-09-27T02:58:08.649Z,1009.29
2018-09-27T02:59:08.623Z,1009.28
2018-09-27T03:00:08.604Z,1009.25
2018-09-27T03:01:08.578Z,1009.23
2018-09-27T03:02:08.556Z,1009.23
2018-09-27T03:03:08.531Z,1009.26
2018-09-27T03:04:08.509Z,1009.26
2018-09-27T03:05:08.490Z,1009.26
2018-09-27T03:06:08.468Z,1009.25
2018-09-27T03:07:08.448Z,1009.25
2018-09-27T03:08:08.416Z,1009.32
2018-09-27T03:09:08.397Z,1009.31
2018-09-27T03:10:08.374Z,1009.31
2018-09-27T03:11:08.347Z,1009.33
2018-09-27T03:12:08.330Z,1009.34
2018-09-27T03:13:08.298Z,1009.33
2018-09-27T03:14:08.286Z,1009.28
2018-09-27T03:15:08.253Z,1009.31
2018-09-27T03:16:08.237Z,1009.27
2018-09-27T03:17:08.224Z,1009.25
2018-09-27T03:18:08.190Z,1009.21
2018-09-27T03:19:08.173Z,1009.19
2018-09-27T03:20:08.144Z,1009.19
2018-09-27T03:21:08.178Z,1009.21
2018-09-27T03:22:08.094Z,1009.26
2018-09-27T03:23:08.078Z,1009.22
2018-09-27T03:24:08.059Z,1009.21
2018-09-27T03:25:08.027Z,1009.21
2018-09-27T03:26:08.008Z,1009.17
2018-09-27T03:27:07.982Z,1009.19
2018-09-27T03:28:07.956Z,1009.19
2018-09-27T03:29:07.935Z,1009.18
2018-09-27T03:30:07.910Z,1009.15
2018-09-27T03:31:07.929Z,1009.16
2018-09-27T03:32:07.868Z,1009.13
2018-09-27T03:33:07.852Z,1009.14
2018-09-27T03:34:07.863Z,1009.09
2018-09-27T03:35:07.799Z,1009.08
2018-09-27T03:36:07.782Z,1009.12
2018-09-27T03:37:07.756Z,1009.14
2018-09-27T03:38:07.730Z,1009.12
2018-09-27T03:39:07.710Z,1009.11
2018-09-27T03:40:07.713Z,1009.07
2018-09-27T03:41:07.658Z,1009.08
2018-09-27T03:42:07.636Z,1009.08
2018-09-27T03:43:07.614Z,1009.06
2018-09-27T03:44:07.591Z,1009.08
2018-09-27T03:45:07.575Z,1009.08
2018-09-27T03:46:07.551Z,1009.08
2018-09-27T03:47:07.526Z,1009.07
2018-09-27T03:48:07.497Z,1009.07
2018-09-27T03:49:07.481Z,1009.06
2018-09-27T03:50:07.459Z,1009.08
2018-09-27T03:51:07.430Z,1009.06
2018-09-27T03:52:07.411Z,1009.07
2018-09-27T03:53:07.388Z,1009.09
2018-09-27T03:54:07.367Z,1009.08
2018-09-27T03:55:07.335Z,1009.11
2018-09-27T03:56:07.313Z,1009.11
2018-09-27T03:57:07.293Z,1009.09
2018-09-27T03:58:07.274Z,1009.09
2018-09-27T03:59:07.246Z,1009.08
2018-09-27T04:00:07.226Z,1009.03
2018-09-27T04:01:07.200Z,1008.99
2018-09-27T04:02:07.174Z,1008.97
2018-09-27T04:03:07.211Z,1008.98
2018-09-27T04:04:07.133Z,1009.00
2018-09-27T04:05:07.114Z,1008.99
2018-09-27T04:06:07.091Z,1009.01
2018-09-27T04:07:07.069Z,1009.02
2018-09-27T04:08:07.043Z,1009.01
2018-09-27T04:09:07.017Z,1009.01
2018-09-27T04:10:06.992Z,1009.00
2018-09-27T04:11:06.973Z,1008.98
2018-09-27T04:12:06.950Z,1008.98
2018-09-27T04:13:06.924Z,1009.00
2018-09-27T04:14:06.901Z,1008.95
2018-09-27T04:15:06.882Z,1008.98
2018-09-27T04:16:06.854Z,1008.95
2018-09-27T04:17:06.831Z,1008.97
2018-09-27T04:18:06.816Z,1008.99
2018-09-27T04:19:06.789Z,1009.03
2018-09-27T04:20:07.340Z,1008.98
2018-09-27T04:21:06.744Z,1009.00
2018-09-27T04:22:06.718Z,1008.99
2018-09-27T04:23:06.699Z,1008.96
2018-09-27T04:24:06.711Z,1009.02
2018-09-27T04:25:06.648Z,1009.06
2018-09-27T04:26:06.622Z,1009.03
2018-09-27T04:27:06.613Z,1009.03
2018-09-27T04:28:06.578Z,1008.97
2018-09-27T04:29:06.555Z,1008.96
2018-09-27T04:30:06.533Z,1008.92
2018-09-27T04:31:06.507Z,1008.92
2018-09-27T04:32:06.488Z,1008.92
2018-09-27T04:33:06.468Z,1008.92
2018-09-27T04:34:06.440Z,1008.91
2018-09-27T04:35:06.424Z,1008.87
2018-09-27T04:36:06.398Z,1008.86
2018-09-27T04:37:06.376Z,1008.87
2018-09-27T04:38:06.351Z,1008.87
2018-09-27T04:39:06.323Z,1008.87
2018-09-27T04:40:06.304Z,1008.87
2018-09-27T04:41:06.870Z,1008.86
2018-09-27T04:42:06.262Z,1008.87
2018-09-27T04:43:06.238Z,1008.85
2018-09-27T04:44:06.232Z,1008.84
2018-09-27T04:45:06.188Z,1008.86
2018-09-27T04:46:06.853Z,1008.85
2018-09-27T04:47:06.148Z,1008.81
2018-09-27T04:48:06.123Z,1008.84
2018-09-27T04:49:06.094Z,1008.86
2018-09-27T04:50:06.075Z,1008.83
2018-09-27T04:51:06.076Z,1008.82
2018-09-27T04:52:06.029Z,1008.81
2018-09-27T04:53:06.007Z,1008.79
2018-09-27T04:54:05.985Z,1008.77
2018-09-27T04:55:05.957Z,1008.82
2018-09-27T04:56:05.941Z,1008.82
2018-09-27T04:57:05.909Z,1008.82
2018-09-27T04:58:05.886Z,1008.85
2018-09-27T04:59:05.866Z,1008.84
2018-09-27T05:00:05.872Z,1008.78
2018-09-27T05:01:05.825Z,1008.77
2018-09-27T05:02:05.796Z,1008.75
2018-09-27T05:03:05.777Z,1008.75
2018-09-27T05:04:05.749Z,1008.77
2018-09-27T05:05:05.733Z,1008.72
2018-09-27T05:06:05.704Z,1008.71
2018-09-27T05:07:05.679Z,1008.69
2018-09-27T05:08:05.659Z,1008.71
2018-09-27T05:09:05.634Z,1008.74
2018-09-27T05:10:05.614Z,1008.74
2018-09-27T05:11:05.589Z,1008.75
2018-09-27T05:12:05.563Z,1008.78
2018-09-27T05:13:05.539Z,1008.78
2018-09-27T05:14:05.517Z,1008.81
2018-09-27T05:15:05.494Z,1008.77
2018-09-27T05:16:05.520Z,1008.81
2018-09-27T05:17:05.450Z,1008.81
2018-09-27T05:18:05.424Z,1008.82
2018-09-27T05:19:05.405Z,1008.80
2018-09-27T05:20:05.379Z,1008.82
2018-09-27T05:21:05.354Z,1008.81
2018-09-27T05:22:05.339Z,1008.85
2018-09-27T05:23:05.316Z,1008.83
2018-09-27T05:24:05.288Z,1008.83
2018-09-27T05:25:05.265Z,1008.86
2018-09-27T05:26:05.246Z,1008.84
2018-09-27T05:27:05.255Z,1008.86
2018-09-27T05:28:05.198Z,1008.80
2018-09-27T05:29:05.170Z,1008.80
2018-09-27T05:30:05.146Z,1008.79
2018-09-27T05:31:05.124Z,1008.83
2018-09-27T05:32:05.105Z,1008.80
2018-09-27T05:33:05.078Z,1008.83
2018-09-27T05:34:05.056Z,1008.81
2018-09-27T05:35:05.040Z,1008.83
2018-09-27T05:36:05.008Z,1008.87
2018-09-27T05:37:04.992Z,1008.82
2018-09-27T05:38:04.970Z,1008.81
2018-09-27T05:39:04.942Z,1008.84
2018-09-27T05:40:04.923Z,1008.82
2018-09-27T05:41:04.898Z,1008.86
2018-09-27T05:42:04.875Z,1008.84
2018-09-27T05:43:04.849Z,1008.87
2018-09-27T05:44:04.824Z,1008.91
2018-09-27T05:45:04.801Z,1008.90
2018-09-27T05:46:04.785Z,1008.90
2018-09-27T05:47:04.756Z,1008.92
2018-09-27T05:48:04.733Z,1008.89
2018-09-27T05:49:04.711Z,1008.92
2018-09-27T05:50:04.692Z,1008.89
2018-09-27T05:51:04.666Z,1008.88
2018-09-27T05:52:04.648Z,1008.89
2018-09-27T05:53:04.625Z,1008.85
2018-09-27T05:54:04.596Z,1008.83
2018-09-27T05:55:04.572Z,1008.86
2018-09-27T05:56:04.553Z,1008.86
2018-09-27T05:57:04.531Z,1008.86
2018-09-27T05:58:04.502Z,1008.89
2018-09-27T05:59:04.477Z,1008.90
2018-09-27T06:00:04.461Z,1008.92
2018-09-27T06:01:04.433Z,1008.93
2018-09-27T06:02:04.472Z,1008.90
2018-09-27T06:03:04.387Z,1008.88
2018-09-27T06:04:04.368Z,1008.90
2018-09-27T06:05:04.339Z,1008.94
2018-09-27T06:06:04.323Z,1008.94
2018-09-27T06:07:04.301Z,1008.97
2018-09-27T06:08:04.271Z,1008.96
2018-09-27T06:09:04.256Z,1008.98
2018-09-27T06:10:04.230Z,1008.97
2018-09-27T06:11:04.202Z,1008.95
2018-09-27T06:12:04.179Z,1008.90
2018-09-27T06:13:04.163Z,1008.91
2018-09-27T06:14:04.134Z,1008.93
2018-09-27T06:15:04.111Z,1008.92
2018-09-27T06:16:04.092Z,1008.90
2018-09-27T06:17:04.067Z,1008.92
2018-09-27T06:18:04.045Z,1008.93
2018-09-27T06:19:04.019Z,1008.93
2018-09-27T06:20:03.996Z,1008.89
2018-09-27T06:21:03.983Z,1008.88
2018-09-27T06:22:03.951Z,1008.83
2018-09-27T06:23:03.934Z,1008.87
2018-09-27T06:24:03.905Z,1008.87
2018-09-27T06:25:03.889Z,1008.88
2018-09-27T06:26:03.901Z,1008.86
2018-09-27T06:27:03.841Z,1008.86
2018-09-27T06:28:03.816Z,1008.88
2018-09-27T06:29:03.796Z,1008.88
2018-09-27T06:30:03.775Z,1008.89
2018-09-27T06:31:03.751Z,1008.86
2018-09-27T06:32:03.729Z,1008.89
2018-09-27T06:33:03.707Z,1008.87
2018-09-27T06:34:03.682Z,1008.82
2018-09-27T06:35:03.680Z,1008.84
2018-09-27T06:36:03.638Z,1008.82
2018-09-27T06:37:03.608Z,1008.82
2018-09-27T06:38:03.586Z,1008.86
2018-09-27T06:39:03.570Z,1008.82
2018-09-27T06:40:03.541Z,1008.82
2018-09-27T06:41:03.527Z,1008.85
2018-09-27T06:42:03.500Z,1008.83
2018-09-27T06:43:03.474Z,1008.86
2018-09-27T06:44:03.451Z,1008.85
2018-09-27T06:45:03.435Z,1008.86
2018-09-27T06:46:03.413Z,1008.87
2018-09-27T06:47:03.391Z,1008.89
2018-09-27T06:48:03.359Z,1008.86
2018-09-27T06:49:03.343Z,1008.85
2018-09-27T06:50:03.327Z,1008.84
2018-09-27T06:51:03.295Z,1008.81
2018-09-27T06:52:03.272Z,1008.82
2018-09-27T06:53:03.250Z,1008.84
2018-09-27T06:54:03.234Z,1008.86
2018-09-27T06:55:03.297Z,1008.85
2018-09-27T06:56:03.254Z,1008.85
2018-09-27T06:57:03.180Z,1008.86
2018-09-27T06:58:03.136Z,1008.84
2018-09-27T06:59:03.117Z,1008.84
2018-09-27T07:00:03.101Z,1008.86
2018-09-27T07:01:03.192Z,1008.87
2018-09-27T07:02:03.050Z,1008.83
2018-09-27T07:03:03.037Z,1008.84
2018-09-27T07:04:03.005Z,1008.84
2018-09-27T07:05:03.043Z,1008.85
2018-09-27T07:06:02.967Z,1008.87
2018-09-27T07:07:02.945Z,1008.86
2018-09-27T07:08:02.919Z,1008.85
2018-09-27T07:09:02.900Z,1008.86
2018-09-27T07:10:02.881Z,1008.85
2018-09-27T07:11:02.851Z,1008.82
2018-09-27T07:12:02.892Z,1008.83
2018-09-27T07:13:02.808Z,1008.86
2018-09-27T07:14:02.792Z,1008.85
2018-09-27T07:15:02.766Z,1008.84
2018-09-27T07:16:02.748Z,1008.80
2018-09-27T07:17:02.730Z,1008.79
2018-09-27T07:18:02.705Z,1008.80
2018-09-27T07:19:02.679Z,1008.81
2018-09-27T07:20:02.656Z,1008.78
2018-09-27T07:21:02.637Z,1008.81
2018-09-27T07:22:02.618Z,1008.83
2018-09-27T07:23:02.589Z,1008.81
2018-09-27T07:24:02.570Z,1008.79
2018-09-27T07:25:02.609Z,1008.77
2018-09-27T07:26:02.528Z,1008.74
2018-09-27T07:27:02.592Z,1008.75
2018-09-27T07:28:02.488Z,1008.72
2018-09-27T07:29:02.466Z,1008.72
2018-09-27T07:30:02.440Z,1008.74
2018-09-27T07:31:02.455Z,1008.76
2018-09-27T07:32:02.401Z,1008.76
2018-09-27T07:33:02.379Z,1008.80
2018-09-27T07:34:02.373Z,1008.80
2018-09-27T07:35:02.343Z,1008.83
2018-09-27T07:36:02.315Z,1008.85
2018-09-27T07:37:02.301Z,1008.87
2018-09-27T07:38:02.276Z,1008.83
2018-09-27T07:39:02.254Z,1008.88
2018-09-27T07:40:02.237Z,1008.90
2018-09-27T07:41:02.222Z,1008.85
2018-09-27T07:42:02.196Z,1008.84
2018-09-27T07:43:02.175Z,1008.86
2018-09-27T07:44:02.161Z,1008.87
2018-09-27T07:45:02.135Z,1008.86
2018-09-27T07:46:02.121Z,1008.88
2018-09-27T07:47:02.103Z,1008.87
2018-09-27T07:48:02.078Z,1008.81
2018-09-27T07:49:02.058Z,1008.84
2018-09-27T07:50:02.045Z,1008.86
2018-09-27T07:51:02.025Z,1008.86
2018-09-27T07:52:02.005Z,1008.86
2018-09-27T07:53:01.988Z,1008.92
2018-09-27T07:54:01.976Z,1008.92
2018-09-27T07:55:01.987Z,1008.91
2018-09-27T07:56:01.936Z,1008.94
2018-09-27T07:57:01.925Z,1008.90
2018-09-27T07:58:01.901Z,1008.92
2018-09-27T07:59:01.891Z,1008.94
2018-09-27T08:00:01.897Z,1008.99
2018-09-27T08:01:01.859Z,1008.98
2018-09-27T08:02:01.843Z,1008.95
2018-09-27T08:03:01.841Z,1008.99
2018-09-27T08:04:01.854Z,1008.99
2018-09-27T08:05:01.796Z,1009.00
2018-09-27T08:06:01.785Z,1009.02
2018-09-27T08:07:01.763Z,1009.05
2018-09-27T08:08:01.750Z,1009.01
2018-09-27T08:09:01.733Z,1009.01
2018-09-27T08:10:01.718Z,1009.04
2018-09-27T08:11:01.761Z,1009.01
2018-09-27T08:12:01.732Z,1009.00
2018-09-27T08:13:01.680Z,1009.02
2018-09-27T08:14:01.672Z,1009.00
2018-09-27T08:15:01.648Z,1008.98
2018-09-27T08:16:01.629Z,1008.97
2018-09-27T08:17:01.716Z,1008.95
2018-09-27T08:18:01.603Z,1008.97
2018-09-27T08:19:01.590Z,1008.93
2018-09-27T08:20:01.572Z,1008.93
2018-09-27T08:21:01.657Z,1008.88
2018-09-27T08:22:01.552Z,1008.88
2018-09-27T08:23:01.534Z,1008.86
2018-09-27T08:24:01.538Z,1008.88
2018-09-27T08:25:01.503Z,1008.89
2018-09-27T08:26:01.497Z,1008.83
2018-09-27T08:27:01.484Z,1008.85
2018-09-27T08:28:01.464Z,1008.85
2018-09-27T08:29:01.458Z,1008.83
2018-09-27T08:30:01.439Z,1008.82
2018-09-27T08:31:01.469Z,1008.84
2018-09-27T08:32:01.417Z,1008.83
2018-09-27T08:33:01.407Z,1008.83
2018-09-27T08:34:01.387Z,1008.81
2018-09-27T08:35:01.380Z,1008.82
2018-09-27T08:36:01.365Z,1008.84
2018-09-27T08:37:01.347Z,1008.81
2018-09-27T08:38:01.337Z,1008.81
2018-09-27T08:39:01.321Z,1008.84
2018-09-27T08:40:01.362Z,1008.82
2018-09-27T08:41:01.302Z,1008.87
2018-09-27T08:42:01.289Z,1008.84
2018-09-27T08:43:01.277Z,1008.84
2018-09-27T08:44:01.267Z,1008.84
2018-09-27T08:45:01.506Z,1008.84
2018-09-27T08:46:01.238Z,1008.87
2018-09-27T08:47:01.225Z,1008.84
2018-09-27T08:48:01.216Z,1008.92
2018-09-27T08:49:01.203Z,1008.88
2018-09-27T08:50:01.192Z,1008.90
2018-09-27T08:51:01.180Z,1008.89
2018-09-27T08:52:01.207Z,1008.88
2018-09-27T08:53:01.164Z,1008.89
2018-09-27T08:54:01.139Z,1008.85
2018-09-27T08:55:01.130Z,1008.85
2018-09-27T08:56:01.263Z,1008.86
2018-09-27T08:57:01.104Z,1008.82
2018-09-27T08:58:01.101Z,1008.83
2018-09-27T08:59:01.084Z,1008.81
2018-09-27T09:00:01.069Z,1008.81
2018-09-27T09:01:01.068Z,1008.77
2018-09-27T09:02:01.049Z,1008.77
2018-09-27T09:03:01.035Z,1008.78
2018-09-27T09:04:01.109Z,1008.78
2018-09-27T09:05:01.024Z,1008.73
2018-09-27T09:06:01.015Z,1008.71
2018-09-27T09:07:00.995Z,1008.69
2018-09-27T09:08:00.979Z,1008.68
2018-09-27T09:09:00.972Z,1008.69
2018-09-27T09:10:00.956Z,1008.69
2018-09-27T09:11:00.944Z,1008.68
2018-09-27T09:12:00.992Z,1008.67
2018-09-27T09:13:00.932Z,1008.70
2018-09-27T09:14:00.918Z,1008.71
2018-09-27T09:15:00.902Z,1008.69
2018-09-27T09:16:00.887Z,1008.72
2018-09-27T09:17:00.877Z,1008.65
2018-09-27T09:18:00.867Z,1008.70
2018-09-27T09:19:00.855Z,1008.65
2018-09-27T09:20:00.845Z,1008.62
2018-09-27T09:21:00.837Z,1008.62
2018-09-27T09:22:00.828Z,1008.63
2018-09-27T09:23:00.823Z,1008.59
2018-09-27T09:24:00.803Z,1008.62
2018-09-27T09:25:00.790Z,1008.57
2018-09-27T09:26:00.810Z,1008.58
2018-09-27T09:27:00.771Z,1008.55
2018-09-27T09:28:00.759Z,1008.57
2018-09-27T09:29:00.752Z,1008.56
2018-09-27T09:30:00.801Z,1008.56
2018-09-27T09:31:00.728Z,1008.56
2018-09-27T09:32:00.712Z,1008.52
2018-09-27T09:33:00.708Z,1008.51
2018-09-27T09:34:00.692Z,1008.49
2018-09-27T09:35:00.680Z,1008.50
2018-09-27T09:36:00.716Z,1008.44
2018-09-27T09:37:00.664Z,1008.44
2018-09-27T09:38:00.651Z,1008.40
2018-09-27T09:39:00.642Z,1008.38
2018-09-27T09:40:00.628Z,1008.43
2018-09-27T09:41:00.619Z,1008.39
2018-09-27T09:42:00.612Z,1008.42
2018-09-27T09:43:00.600Z,1008.38
2018-09-27T09:44:00.590Z,1008.39
2018-09-27T09:45:00.581Z,1008.37
2018-09-27T09:46:00.571Z,1008.36
2018-09-27T09:47:00.555Z,1008.35
2018-09-27T09:48:00.551Z,1008.28
2018-09-27T09:49:00.543Z,1008.27
2018-09-27T09:50:00.575Z,1008.26
2018-09-27T09:51:00.524Z,1008.23
2018-09-27T09:52:00.508Z,1008.23
2018-09-27T09:53:00.514Z,1008.24
2018-09-27T09:54:00.495Z,1008.24
2018-09-27T09:55:00.488Z,1008.22
2018-09-27T09:56:00.477Z,1008.20
2018-09-27T09:57:00.460Z,1008.19
2018-09-27T09:58:00.453Z,1008.16
2018-09-27T09:59:00.450Z,1008.11
2018-09-27T10:00:00.437Z,1008.09
2018-09-27T10:01:00.428Z,1008.09
2018-09-27T10:02:00.418Z,1008.09
2018-09-27T10:03:00.409Z,1008.05
2018-09-27T10:04:00.402Z,1008.04
2018-09-27T10:05:00.389Z,1008.05
2018-09-27T10:06:00.399Z,1008.05
2018-09-27T10:07:00.379Z,1008.05
2018-09-27T10:08:00.369Z,1008.04
2018-09-27T10:09:00.448Z,1008.03
2018-09-27T10:10:00.354Z,1008.07
2018-09-27T10:11:00.346Z,1008.09
2018-09-27T10:12:00.340Z,1008.07
2018-09-27T10:13:00.333Z,1008.03
2018-09-27T10:14:00.321Z,1008.04
2018-09-27T10:15:00.318Z,1008.03
2018-09-27T10:16:00.306Z,1008.04
2018-09-27T10:17:00.302Z,1008.02
2018-09-27T10:18:00.289Z,1008.03
2018-09-27T10:19:00.289Z,1008.01
2018-09-27T10:20:00.276Z,1007.99
2018-09-27T10:21:00.276Z,1008.00
2018-09-27T10:22:00.312Z,1008.00
2018-09-27T10:23:00.264Z,1007.98
2018-09-27T10:24:00.248Z,1007.96
2018-09-27T10:25:00.241Z,1007.94
2018-09-27T10:26:00.235Z,1007.90
2018-09-27T10:27:00.235Z,1007.91
2018-09-27T10:28:00.228Z,1007.88
2018-09-27T10:29:00.222Z,1007.89
2018-09-27T10:30:00.209Z,1007.86
2018-09-27T10:31:00.209Z,1007.85
2018-09-27T10:32:00.196Z,1007.85
2018-09-27T10:33:00.195Z,1007.85
2018-09-27T10:34:00.201Z,1007.88
2018-09-27T10:35:00.183Z,1007.85
2018-09-27T10:36:00.168Z,1007.83
2018-09-27T10:37:00.168Z,1007.86
2018-09-27T10:38:00.159Z,1007.88
2018-09-27T10:39:00.164Z,1007.87
2018-09-27T10:40:00.149Z,1007.82
2018-09-27T10:41:00.147Z,1007.86
2018-09-27T10:42:00.141Z,1007.80
2018-09-27T10:43:00.131Z,1007.79
2018-09-27T10:44:00.131Z,1007.79
2018-09-27T10:45:00.211Z,1007.75
2018-09-27T10:46:00.115Z,1007.73
2018-09-27T10:47:00.108Z,1007.71
2018-09-27T10:48:00.113Z,1007.69
2018-09-27T10:49:00.099Z,1007.68
2018-09-27T10:50:00.106Z,1007.68
2018-09-27T10:51:00.095Z,1007.65
2018-09-27T10:52:00.091Z,1007.67
2018-09-27T10:53:00.079Z,1007.64
2018-09-27T10:54:00.073Z,1007.67
2018-09-27T10:55:00.073Z,1007.62
2018-09-27T10:56:00.065Z,1007.62
2018-09-27T10:57:00.064Z,1007.60
2018-09-27T10:58:00.070Z,1007.57
2018-09-27T10:59:00.051Z,1007.56
2018-09-27T11:00:00.052Z,1007.57
2018-09-27T11:01:00.042Z,1007.53
2018-09-27T11:02:00.038Z,1007.51
2018-09-27T11:03:00.038Z,1007.56
2018-09-27T11:04:00.075Z,1007.51
2018-09-27T11:05:00.044Z,1007.53
2018-09-27T11:06:00.034Z,1007.49
2018-09-27T11:07:00.026Z,1007.49
2018-09-27T11:08:00.019Z,1007.50
2018-09-27T11:09:00.009Z,1007.48
2018-09-27T11:10:00.010Z,1007.44
2018-09-27T11:11:00.022Z,1007.45
2018-09-27T11:12:00.002Z,1007.45
2018-09-27T11:12:59.999Z,1007.42
2018-09-27T11:14:00.000Z,1007.42
2018-09-27T11:14:59.996Z,1007.37
2018-09-27T11:15:59.988Z,1007.38
2018-09-27T11:16:59.983Z,1007.36
2018-09-27T11:17:59.980Z,1007.37
2018-09-27T11:18:59.980Z,1007.36
2018-09-27T11:19:59.979Z,1007.32
2018-09-27T11:20:59.974Z,1007.35
2018-09-27T11:22:00.044Z,1007.34
2018-09-27T11:22:59.971Z,1007.34
2018-09-27T11:23:59.969Z,1007.32
2018-09-27T11:24:59.958Z,1007.31
2018-09-27T11:25:59.959Z,1007.28
2018-09-27T11:26:59.955Z,1007.29
2018-09-27T11:27:59.948Z,1007.29
2018-09-27T11:28:59.962Z,1007.28
2018-09-27T11:29:59.948Z,1007.28
2018-09-27T11:30:59.945Z,1007.24
2018-09-27T11:31:59.948Z,1007.24
2018-09-27T11:32:59.973Z,1007.21
2018-09-27T11:33:59.945Z,1007.16
2018-09-27T11:34:59.932Z,1007.14
2018-09-27T11:35:59.939Z,1007.13
2018-09-27T11:36:59.923Z,1007.12
2018-09-27T11:37:59.932Z,1007.08
2018-09-27T11:39:00.539Z,1007.10
2018-09-27T11:39:59.945Z,1007.10
2018-09-27T11:40:59.923Z,1007.01
2018-09-27T11:41:59.972Z,1006.99
2018-09-27T11:42:59.917Z,1007.01
2018-09-27T11:43:59.970Z,1006.98
2018-09-27T11:44:59.907Z,1006.98
2018-09-27T11:45:59.916Z,1006.97
2018-09-27T11:46:59.907Z,1006.99
2018-09-27T11:47:59.907Z,1006.94
2018-09-27T11:49:00.042Z,1006.95
2018-09-27T11:50:00.032Z,1006.92
2018-09-27T11:50:59.896Z,1006.91
2018-09-27T11:51:59.897Z,1006.89
2018-09-27T11:52:59.894Z,1006.87
2018-09-27T11:53:59.894Z,1006.84
2018-09-27T11:54:59.966Z,1006.87
2018-09-27T11:55:59.948Z,1006.85
2018-09-27T11:56:59.884Z,1006.79
2018-09-27T11:57:59.888Z,1006.79
2018-09-27T11:58:59.959Z,1006.74
2018-09-27T11:59:59.884Z,1006.72
2018-09-27T12:00:59.885Z,1006.75
2018-09-27T12:01:59.888Z,1006.70
2018-09-27T12:02:59.878Z,1006.69
2018-09-27T12:03:59.875Z,1006.65
2018-09-27T12:04:59.868Z,1006.59